sensor_id;sensor_type;location;lat;lon;timestamp;P1;durP1;ratioP1;P2;durP2;ratioP2
23714;SDS011;12036;50.858;4.472;2022-09-21T00:00:23;9.45;;;6.07;;
23714;SDS011;12036;50.858;4.472;2022-09-21T00:02:50;10.75;;;5.82;;
23714;SDS011;12036;50.858;4.472;2022-09-21T00:05:19;10.82;;;6.55;;
23714;SDS011;12036;50.858;4.472;2022-09-21T00:07:45;10.45;;;6.82;;
23714;SDS011;12036;50.858;4.472;2022-09-21T00:10:11;8.95;;;5.85;;
23714;SDS011;12036;50.858;4.472;2022-09-21T00:12:36;10.40;;;5.85;;
23714;SDS011;12036;50.858;4.472;2022-09-21T00:15:05;12.73;;;5.88;;
23714;SDS011;12036;50.858;4.472;2022-09-21T00:17:33;11.70;;;6.50;;
23714;SDS011;12036;50.858;4.472;2022-09-21T00:19:59;9.70;;;6.07;;
23714;SDS011;12036;50.858;4.472;2022-09-21T00:22:28;12.30;;;6.55;;
23714;SDS011;12036;50.858;4.472;2022-09-21T00:24:53;11.13;;;6.25;;
23714;SDS011;12036;50.858;4.472;2022-09-21T00:27:20;11.43;;;5.88;;
23714;SDS011;12036;50.858;4.472;2022-09-21T00:29:46;9.55;;;5.57;;
23714;SDS011;12036;50.858;4.472;2022-09-21T00:32:13;8.82;;;5.30;;
23714;SDS011;12036;50.858;4.472;2022-09-21T00:34:39;12.65;;;5.97;;
23714;SDS011;12036;50.858;4.472;2022-09-21T00:37:05;10.80;;;5.35;;
23714;SDS011;12036;50.858;4.472;2022-09-21T00:39:33;10.00;;;5.63;;
23714;SDS011;12036;50.858;4.472;2022-09-21T00:41:59;11.88;;;5.28;;
23714;SDS011;12036;50.858;4.472;2022-09-21T00:44:30;8.95;;;6.18;;
23714;SDS011;12036;50.858;4.472;2022-09-21T00:46:58;9.43;;;5.60;;
23714;SDS011;12036;50.858;4.472;2022-09-21T00:49:28;7.78;;;5.57;;
23714;SDS011;12036;50.858;4.472;2022-09-21T00:51:55;13.68;;;6.07;;
23714;SDS011;12036;50.858;4.472;2022-09-21T00:54:30;11.27;;;5.70;;
23714;SDS011;12036;50.858;4.472;2022-09-21T00:57:06;9.50;;;6.03;;
23714;SDS011;12036;50.858;4.472;2022-09-21T00:59:33;9.68;;;5.97;;
23714;SDS011;12036;50.858;4.472;2022-09-21T01:02:00;8.77;;;5.65;;
23714;SDS011;12036;50.858;4.472;2022-09-21T01:04:26;14.90;;;6.80;;
23714;SDS011;12036;50.858;4.472;2022-09-21T01:06:53;11.77;;;6.18;;
23714;SDS011;12036;50.858;4.472;2022-09-21T01:09:20;14.73;;;6.10;;
23714;SDS011;12036;50.858;4.472;2022-09-21T01:17:40;8.50;;;5.50;;
23714;SDS011;12036;50.858;4.472;2022-09-21T01:31:40;8.85;;;5.50;;
23714;SDS011;12036;50.858;4.472;2022-09-21T01:37:04;11.98;;;6.28;;
23714;SDS011;12036;50.858;4.472;2022-09-21T01:39:35;9.40;;;5.90;;
23714;SDS011;12036;50.858;4.472;2022-09-21T01:42:04;8.88;;;5.63;;
23714;SDS011;12036;50.858;4.472;2022-09-21T01:44:31;11.05;;;6.35;;
23714;SDS011;12036;50.858;4.472;2022-09-21T01:47:00;13.13;;;5.90;;
23714;SDS011;12036;50.858;4.472;2022-09-21T01:49:47;9.48;;;5.60;;
23714;SDS011;12036;50.858;4.472;2022-09-21T01:52:52;7.45;;;5.55;;
23714;SDS011;12036;50.858;4.472;2022-09-21T01:55:21;8.60;;;5.10;;
23714;SDS011;12036;50.858;4.472;2022-09-21T01:57:59;7.38;;;5.03;;
23714;SDS011;12036;50.858;4.472;2022-09-21T02:00:31;13.00;;;5.72;;
23714;SDS011;12036;50.858;4.472;2022-09-21T02:03:03;11.18;;;5.53;;
23714;SDS011;12036;50.858;4.472;2022-09-21T02:05:36;13.82;;;5.47;;
23714;SDS011;12036;50.858;4.472;2022-09-21T02:08:02;8.55;;;5.22;;
23714;SDS011;12036;50.858;4.472;2022-09-21T02:10:38;8.60;;;5.13;;
23714;SDS011;12036;50.858;4.472;2022-09-21T02:13:08;8.80;;;5.68;;
23714;SDS011;12036;50.858;4.472;2022-09-21T02:18:37;11.07;;;4.97;;
23714;SDS011;12036;50.858;4.472;2022-09-21T02:23:52;5.70;;;4.05;;
23714;SDS011;12036;50.858;4.472;2022-09-21T02:26:48;7.05;;;4.05;;
23714;SDS011;12036;50.858;4.472;2022-09-21T02:29:28;9.70;;;4.60;;
23714;SDS011;12036;50.858;4.472;2022-09-21T02:32:16;7.55;;;3.90;;
23714;SDS011;12036;50.858;4.472;2022-09-21T02:42:46;6.93;;;4.22;;
23714;SDS011;12036;50.858;4.472;2022-09-21T02:45:19;6.38;;;4.20;;
23714;SDS011;12036;50.858;4.472;2022-09-21T02:53:26;5.63;;;3.80;;
23714;SDS011;12036;50.858;4.472;2022-09-21T02:55:56;7.82;;;4.28;;
23714;SDS011;12036;50.858;4.472;2022-09-21T02:58:26;9.52;;;4.30;;
23714;SDS011;12036;50.858;4.472;2022-09-21T03:00:54;6.30;;;4.07;;
23714;SDS011;12036;50.858;4.472;2022-09-21T03:03:22;6.65;;;4.13;;
23714;SDS011;12036;50.858;4.472;2022-09-21T03:05:50;6.03;;;4.03;;
23714;SDS011;12036;50.858;4.472;2022-09-21T03:08:17;9.93;;;3.60;;
23714;SDS011;12036;50.858;4.472;2022-09-21T03:10:43;5.90;;;3.67;;
23714;SDS011;12036;50.858;4.472;2022-09-21T03:13:09;5.72;;;3.47;;
23714;SDS011;12036;50.858;4.472;2022-09-21T03:15:36;11.40;;;3.67;;
23714;SDS011;12036;50.858;4.472;2022-09-21T03:18:03;5.47;;;3.80;;
23714;SDS011;12036;50.858;4.472;2022-09-21T03:20:33;4.70;;;3.80;;
23714;SDS011;12036;50.858;4.472;2022-09-21T03:23:00;5.82;;;4.00;;
23714;SDS011;12036;50.858;4.472;2022-09-21T03:25:26;8.23;;;4.47;;
23714;SDS011;12036;50.858;4.472;2022-09-21T03:27:53;8.40;;;4.30;;
23714;SDS011;12036;50.858;4.472;2022-09-21T03:30:22;5.80;;;4.15;;
23714;SDS011;12036;50.858;4.472;2022-09-21T03:32:49;7.47;;;3.95;;
23714;SDS011;12036;50.858;4.472;2022-09-21T03:35:18;8.10;;;4.18;;
23714;SDS011;12036;50.858;4.472;2022-09-21T03:37:45;6.82;;;4.10;;
23714;SDS011;12036;50.858;4.472;2022-09-21T03:40:13;5.55;;;4.03;;
23714;SDS011;12036;50.858;4.472;2022-09-21T03:42:39;10.57;;;4.20;;
23714;SDS011;12036;50.858;4.472;2022-09-21T03:45:06;5.35;;;3.88;;
23714;SDS011;12036;50.858;4.472;2022-09-21T03:47:33;6.32;;;3.97;;
23714;SDS011;12036;50.858;4.472;2022-09-21T03:49:58;6.82;;;3.22;;
23714;SDS011;12036;50.858;4.472;2022-09-21T03:52:24;4.57;;;3.60;;
23714;SDS011;12036;50.858;4.472;2022-09-21T03:54:50;6.50;;;3.25;;
23714;SDS011;12036;50.858;4.472;2022-09-21T03:57:16;8.73;;;3.65;;
23714;SDS011;12036;50.858;4.472;2022-09-21T03:59:41;5.72;;;3.10;;
23714;SDS011;12036;50.858;4.472;2022-09-21T04:02:07;6.32;;;3.20;;
23714;SDS011;12036;50.858;4.472;2022-09-21T04:04:33;7.55;;;3.10;;
23714;SDS011;12036;50.858;4.472;2022-09-21T04:06:59;3.55;;;2.88;;
23714;SDS011;12036;50.858;4.472;2022-09-21T04:09:24;4.22;;;3.00;;
23714;SDS011;12036;50.858;4.472;2022-09-21T04:11:50;5.93;;;3.30;;
23714;SDS011;12036;50.858;4.472;2022-09-21T04:14:18;6.22;;;2.88;;
23714;SDS011;12036;50.858;4.472;2022-09-21T04:16:44;4.85;;;3.42;;
23714;SDS011;12036;50.858;4.472;2022-09-21T04:19:09;4.57;;;3.13;;
23714;SDS011;12036;50.858;4.472;2022-09-21T04:21:35;6.38;;;2.80;;
23714;SDS011;12036;50.858;4.472;2022-09-21T04:24:01;9.45;;;3.50;;
23714;SDS011;12036;50.858;4.472;2022-09-21T04:26:29;6.57;;;3.65;;
23714;SDS011;12036;50.858;4.472;2022-09-21T04:28:58;10.17;;;3.20;;
23714;SDS011;12036;50.858;4.472;2022-09-21T04:31:25;5.15;;;3.65;;
23714;SDS011;12036;50.858;4.472;2022-09-21T04:33:52;3.78;;;2.90;;
23714;SDS011;12036;50.858;4.472;2022-09-21T04:36:19;7.18;;;3.53;;
23714;SDS011;12036;50.858;4.472;2022-09-21T04:38:46;4.38;;;3.08;;
23714;SDS011;12036;50.858;4.472;2022-09-21T04:41:12;5.22;;;3.03;;
23714;SDS011;12036;50.858;4.472;2022-09-21T04:43:43;4.03;;;3.13;;
23714;SDS011;12036;50.858;4.472;2022-09-21T04:46:10;6.20;;;3.13;;
23714;SDS011;12036;50.858;4.472;2022-09-21T04:48:38;5.82;;;3.30;;
23714;SDS011;12036;50.858;4.472;2022-09-21T04:51:04;9.15;;;3.50;;
23714;SDS011;12036;50.858;4.472;2022-09-21T04:53:34;6.00;;;3.60;;
23714;SDS011;12036;50.858;4.472;2022-09-21T04:56:01;5.53;;;3.22;;
23714;SDS011;12036;50.858;4.472;2022-09-21T04:58:27;5.20;;;3.45;;
23714;SDS011;12036;50.858;4.472;2022-09-21T05:00:53;7.47;;;3.20;;
23714;SDS011;12036;50.858;4.472;2022-09-21T05:03:20;4.57;;;3.22;;
23714;SDS011;12036;50.858;4.472;2022-09-21T05:05:47;3.80;;;3.00;;
23714;SDS011;12036;50.858;4.472;2022-09-21T05:08:14;27.23;;;15.27;;
23714;SDS011;12036;50.858;4.472;2022-09-21T05:10:41;61.65;;;32.53;;
23714;SDS011;12036;50.858;4.472;2022-09-21T05:13:07;13.13;;;7.53;;
23714;SDS011;12036;50.858;4.472;2022-09-21T05:15:33;9.10;;;5.70;;
23714;SDS011;12036;50.858;4.472;2022-09-21T05:18:01;14.82;;;7.10;;
23714;SDS011;12036;50.858;4.472;2022-09-21T05:20:27;18.08;;;9.73;;
23714;SDS011;12036;50.858;4.472;2022-09-21T05:22:52;14.50;;;8.52;;
23714;SDS011;12036;50.858;4.472;2022-09-21T05:25:18;12.20;;;7.78;;
23714;SDS011;12036;50.858;4.472;2022-09-21T05:27:43;15.98;;;9.25;;
23714;SDS011;12036;50.858;4.472;2022-09-21T05:30:09;11.02;;;7.25;;
23714;SDS011;12036;50.858;4.472;2022-09-21T05:32:55;13.68;;;8.18;;
23714;SDS011;12036;50.858;4.472;2022-09-21T05:35:32;10.40;;;6.93;;
23714;SDS011;12036;50.858;4.472;2022-09-21T05:38:14;18.65;;;9.30;;
23714;SDS011;12036;50.858;4.472;2022-09-21T05:40:42;15.57;;;8.82;;
23714;SDS011;12036;50.858;4.472;2022-09-21T05:43:09;11.80;;;6.50;;
23714;SDS011;12036;50.858;4.472;2022-09-21T05:45:45;8.93;;;5.28;;
23714;SDS011;12036;50.858;4.472;2022-09-21T05:48:19;7.85;;;4.75;;
23714;SDS011;12036;50.858;4.472;2022-09-21T05:53:44;8.85;;;5.15;;
23714;SDS011;12036;50.858;4.472;2022-09-21T06:02:11;10.05;;;5.95;;
23714;SDS011;12036;50.858;4.472;2022-09-21T06:05:12;7.97;;;5.70;;
23714;SDS011;12036;50.858;4.472;2022-09-21T06:07:39;13.48;;;6.80;;
23714;SDS011;12036;50.858;4.472;2022-09-21T06:10:06;15.25;;;6.70;;
23714;SDS011;12036;50.858;4.472;2022-09-21T06:12:39;10.45;;;5.47;;
23714;SDS011;12036;50.858;4.472;2022-09-21T06:15:05;11.23;;;6.25;;
23714;SDS011;12036;50.858;4.472;2022-09-21T06:17:32;10.55;;;6.32;;
23714;SDS011;12036;50.858;4.472;2022-09-21T06:19:57;14.25;;;7.07;;
23714;SDS011;12036;50.858;4.472;2022-09-21T06:22:23;12.05;;;6.75;;
23714;SDS011;12036;50.858;4.472;2022-09-21T06:24:49;15.23;;;7.45;;
23714;SDS011;12036;50.858;4.472;2022-09-21T06:27:14;14.50;;;6.80;;
23714;SDS011;12036;50.858;4.472;2022-09-21T06:29:40;12.25;;;7.72;;
23714;SDS011;12036;50.858;4.472;2022-09-21T06:32:06;16.80;;;7.53;;
23714;SDS011;12036;50.858;4.472;2022-09-21T06:34:31;12.80;;;7.63;;
23714;SDS011;12036;50.858;4.472;2022-09-21T06:36:57;17.60;;;8.45;;
23714;SDS011;12036;50.858;4.472;2022-09-21T06:39:23;22.95;;;12.52;;
23714;SDS011;12036;50.858;4.472;2022-09-21T06:41:48;18.05;;;9.48;;
23714;SDS011;12036;50.858;4.472;2022-09-21T06:44:15;16.23;;;8.52;;
23714;SDS011;12036;50.858;4.472;2022-09-21T06:46:41;17.15;;;9.52;;
23714;SDS011;12036;50.858;4.472;2022-09-21T06:49:07;11.45;;;7.85;;
23714;SDS011;12036;50.858;4.472;2022-09-21T06:51:32;11.82;;;7.80;;
23714;SDS011;12036;50.858;4.472;2022-09-21T06:53:58;13.60;;;8.02;;
23714;SDS011;12036;50.858;4.472;2022-09-21T06:56:24;15.23;;;9.30;;
23714;SDS011;12036;50.858;4.472;2022-09-21T06:58:50;20.58;;;10.52;;
23714;SDS011;12036;50.858;4.472;2022-09-21T07:01:16;21.67;;;10.98;;
23714;SDS011;12036;50.858;4.472;2022-09-21T07:03:43;20.38;;;11.10;;
23714;SDS011;12036;50.858;4.472;2022-09-21T07:06:09;14.70;;;8.55;;
23714;SDS011;12036;50.858;4.472;2022-09-21T07:08:38;12.40;;;8.13;;
23714;SDS011;12036;50.858;4.472;2022-09-21T07:11:04;12.68;;;8.13;;
23714;SDS011;12036;50.858;4.472;2022-09-21T07:13:30;15.77;;;8.90;;
23714;SDS011;12036;50.858;4.472;2022-09-21T07:15:55;14.80;;;8.60;;
23714;SDS011;12036;50.858;4.472;2022-09-21T07:18:21;16.65;;;9.13;;
23714;SDS011;12036;50.858;4.472;2022-09-21T07:20:47;13.57;;;8.27;;
23714;SDS011;12036;50.858;4.472;2022-09-21T07:23:14;17.80;;;9.50;;
23714;SDS011;12036;50.858;4.472;2022-09-21T07:25:41;15.15;;;9.38;;
23714;SDS011;12036;50.858;4.472;2022-09-21T07:28:08;17.45;;;10.05;;
23714;SDS011;12036;50.858;4.472;2022-09-21T07:30:35;21.10;;;11.60;;
23714;SDS011;12036;50.858;4.472;2022-09-21T07:33:02;16.08;;;11.88;;
23714;SDS011;12036;50.858;4.472;2022-09-21T07:35:29;22.50;;;10.65;;
23714;SDS011;12036;50.858;4.472;2022-09-21T07:37:58;15.20;;;10.10;;
23714;SDS011;12036;50.858;4.472;2022-09-21T07:40:24;12.55;;;9.38;;
23714;SDS011;12036;50.858;4.472;2022-09-21T07:42:50;13.32;;;9.23;;
23714;SDS011;12036;50.858;4.472;2022-09-21T07:45:16;17.20;;;9.13;;
23714;SDS011;12036;50.858;4.472;2022-09-21T07:47:43;17.27;;;10.13;;
23714;SDS011;12036;50.858;4.472;2022-09-21T07:50:08;14.45;;;10.27;;
23714;SDS011;12036;50.858;4.472;2022-09-21T07:52:34;12.82;;;10.23;;
23714;SDS011;12036;50.858;4.472;2022-09-21T07:55:00;16.88;;;11.00;;
23714;SDS011;12036;50.858;4.472;2022-09-21T07:57:26;17.33;;;10.63;;
23714;SDS011;12036;50.858;4.472;2022-09-21T08:00:10;18.15;;;11.20;;
23714;SDS011;12036;50.858;4.472;2022-09-21T08:02:37;17.48;;;11.27;;
23714;SDS011;12036;50.858;4.472;2022-09-21T08:05:02;21.80;;;11.63;;
23714;SDS011;12036;50.858;4.472;2022-09-21T08:07:28;19.40;;;11.02;;
23714;SDS011;12036;50.858;4.472;2022-09-21T08:09:55;17.67;;;10.55;;
23714;SDS011;12036;50.858;4.472;2022-09-21T08:12:20;17.65;;;11.05;;
23714;SDS011;12036;50.858;4.472;2022-09-21T08:14:46;19.85;;;10.40;;
23714;SDS011;12036;50.858;4.472;2022-09-21T08:17:12;19.60;;;11.38;;
23714;SDS011;12036;50.858;4.472;2022-09-21T08:19:38;19.92;;;10.57;;
23714;SDS011;12036;50.858;4.472;2022-09-21T08:22:04;16.13;;;9.90;;
23714;SDS011;12036;50.858;4.472;2022-09-21T08:24:30;13.43;;;9.65;;
23714;SDS011;12036;50.858;4.472;2022-09-21T08:26:57;22.77;;;9.65;;
23714;SDS011;12036;50.858;4.472;2022-09-21T08:29:23;16.77;;;9.38;;
23714;SDS011;12036;50.858;4.472;2022-09-21T08:31:49;16.75;;;9.60;;
23714;SDS011;12036;50.858;4.472;2022-09-21T08:34:16;15.63;;;8.75;;
23714;SDS011;12036;50.858;4.472;2022-09-21T08:36:43;17.23;;;8.40;;
23714;SDS011;12036;50.858;4.472;2022-09-21T08:39:09;17.40;;;8.68;;
23714;SDS011;12036;50.858;4.472;2022-09-21T08:44:23;13.57;;;9.25;;
23714;SDS011;12036;50.858;4.472;2022-09-21T08:47:00;15.02;;;6.97;;
23714;SDS011;12036;50.858;4.472;2022-09-21T08:49:39;13.75;;;6.80;;
23714;SDS011;12036;50.858;4.472;2022-09-21T08:52:11;18.02;;;6.93;;
23714;SDS011;12036;50.858;4.472;2022-09-21T08:54:55;11.20;;;6.70;;
23714;SDS011;12036;50.858;4.472;2022-09-21T08:57:25;9.85;;;4.57;;
23714;SDS011;12036;50.858;4.472;2022-09-21T08:59:54;8.68;;;5.53;;
23714;SDS011;12036;50.858;4.472;2022-09-21T09:02:27;11.38;;;4.90;;
23714;SDS011;12036;50.858;4.472;2022-09-21T09:04:59;12.00;;;4.70;;
23714;SDS011;12036;50.858;4.472;2022-09-21T09:22:03;6.53;;;1.75;;
23714;SDS011;12036;50.858;4.472;2022-09-21T09:27:29;6.85;;;1.63;;
23714;SDS011;12036;50.858;4.472;2022-09-21T09:30:00;3.05;;;1.20;;
23714;SDS011;12036;50.858;4.472;2022-09-21T09:35:27;7.10;;;1.30;;
23714;SDS011;12036;50.858;4.472;2022-09-21T09:38:18;3.47;;;1.38;;
23714;SDS011;12036;50.858;4.472;2022-09-21T09:52:09;6.57;;;0.75;;
23714;SDS011;12036;50.858;4.472;2022-09-21T09:54:39;5.45;;;0.70;;
23714;SDS011;12036;50.858;4.472;2022-09-21T09:57:05;2.28;;;0.88;;
23714;SDS011;12036;50.858;4.472;2022-09-21T09:59:36;2.30;;;0.70;;
23714;SDS011;12036;50.858;4.472;2022-09-21T10:02:21;4.00;;;0.80;;
23714;SDS011;12036;50.858;4.472;2022-09-21T10:07:45;2.50;;;0.80;;
23714;SDS011;12036;50.858;4.472;2022-09-21T10:12:53;3.92;;;0.80;;
23714;SDS011;12036;50.858;4.472;2022-09-21T10:15:22;3.28;;;0.75;;
23714;SDS011;12036;50.858;4.472;2022-09-21T10:17:56;3.63;;;0.98;;
23714;SDS011;12036;50.858;4.472;2022-09-21T10:20:41;2.10;;;0.70;;
23714;SDS011;12036;50.858;4.472;2022-09-21T10:23:18;3.40;;;1.00;;
23714;SDS011;12036;50.858;4.472;2022-09-21T10:25:44;4.13;;;1.00;;
23714;SDS011;12036;50.858;4.472;2022-09-21T10:28:18;4.95;;;1.00;;
23714;SDS011;12036;50.858;4.472;2022-09-21T10:30:46;4.47;;;0.80;;
23714;SDS011;12036;50.858;4.472;2022-09-21T10:33:19;5.65;;;1.00;;
23714;SDS011;12036;50.858;4.472;2022-09-21T10:35:50;2.85;;;1.10;;
23714;SDS011;12036;50.858;4.472;2022-09-21T10:38:17;2.90;;;0.90;;
23714;SDS011;12036;50.858;4.472;2022-09-21T10:40:44;4.82;;;0.85;;
23714;SDS011;12036;50.858;4.472;2022-09-21T10:46:07;2.28;;;0.68;;
23714;SDS011;12036;50.858;4.472;2022-09-21T10:48:32;6.75;;;1.00;;
23714;SDS011;12036;50.858;4.472;2022-09-21T10:50:59;2.58;;;0.80;;
23714;SDS011;12036;50.858;4.472;2022-09-21T10:53:25;4.03;;;0.80;;
23714;SDS011;12036;50.858;4.472;2022-09-21T10:55:57;3.78;;;1.00;;
23714;SDS011;12036;50.858;4.472;2022-09-21T10:58:32;6.00;;;1.00;;
23714;SDS011;12036;50.858;4.472;2022-09-21T11:01:09;4.43;;;1.23;;
23714;SDS011;12036;50.858;4.472;2022-09-21T11:04:02;5.35;;;0.80;;
23714;SDS011;12036;50.858;4.472;2022-09-21T11:06:51;4.22;;;1.20;;
23714;SDS011;12036;50.858;4.472;2022-09-21T11:09:45;4.10;;;0.80;;
23714;SDS011;12036;50.858;4.472;2022-09-21T11:12:38;3.65;;;1.30;;
23714;SDS011;12036;50.858;4.472;2022-09-21T11:18:32;2.60;;;0.90;;
23714;SDS011;12036;50.858;4.472;2022-09-21T11:21:13;4.72;;;0.95;;
23714;SDS011;12036;50.858;4.472;2022-09-21T11:27:30;2.45;;;0.75;;
23714;SDS011;12036;50.858;4.472;2022-09-21T11:32:15;1.85;;;0.88;;
23714;SDS011;12036;50.858;4.472;2022-09-21T11:45:31;2.92;;;0.80;;
23714;SDS011;12036;50.858;4.472;2022-09-21T11:51:02;5.65;;;0.75;;
23714;SDS011;12036;50.858;4.472;2022-09-21T11:53:57;3.83;;;0.85;;
23714;SDS011;12036;50.858;4.472;2022-09-21T11:56:44;5.15;;;0.70;;
23714;SDS011;12036;50.858;4.472;2022-09-21T11:59:19;2.22;;;0.80;;
23714;SDS011;12036;50.858;4.472;2022-09-21T12:04:47;2.47;;;0.90;;
23714;SDS011;12036;50.858;4.472;2022-09-21T12:21:11;5.05;;;0.65;;
23714;SDS011;12036;50.858;4.472;2022-09-21T12:26:18;6.28;;;0.63;;
23714;SDS011;12036;50.858;4.472;2022-09-21T12:28:49;2.58;;;0.77;;
23714;SDS011;12036;50.858;4.472;2022-09-21T12:31:29;4.90;;;1.10;;
23714;SDS011;12036;50.858;4.472;2022-09-21T12:34:11;8.10;;;0.88;;
23714;SDS011;12036;50.858;4.472;2022-09-21T12:36:57;3.92;;;0.75;;
23714;SDS011;12036;50.858;4.472;2022-09-21T12:39:38;3.35;;;0.60;;
23714;SDS011;12036;50.858;4.472;2022-09-21T12:42:21;3.83;;;0.55;;
23714;SDS011;12036;50.858;4.472;2022-09-21T12:44:52;3.67;;;0.70;;
23714;SDS011;12036;50.858;4.472;2022-09-21T12:50:20;4.30;;;0.60;;
23714;SDS011;12036;50.858;4.472;2022-09-21T12:52:48;5.57;;;0.90;;
23714;SDS011;12036;50.858;4.472;2022-09-21T13:00:57;2.97;;;0.90;;
23714;SDS011;12036;50.858;4.472;2022-09-21T13:04:09;3.17;;;0.75;;
23714;SDS011;12036;50.858;4.472;2022-09-21T13:09:20;3.38;;;0.90;;
23714;SDS011;12036;50.858;4.472;2022-09-21T13:11:54;2.42;;;0.90;;
23714;SDS011;12036;50.858;4.472;2022-09-21T13:14:27;5.45;;;0.90;;
23714;SDS011;12036;50.858;4.472;2022-09-21T13:16:59;5.38;;;0.70;;
23714;SDS011;12036;50.858;4.472;2022-09-21T13:19:28;4.57;;;1.05;;
23714;SDS011;12036;50.858;4.472;2022-09-21T13:24:44;4.57;;;0.80;;
23714;SDS011;12036;50.858;4.472;2022-09-21T13:27:54;3.60;;;1.10;;
23714;SDS011;12036;50.858;4.472;2022-09-21T13:41:19;5.97;;;1.38;;
23714;SDS011;12036;50.858;4.472;2022-09-21T13:49:01;7.18;;;0.98;;
23714;SDS011;12036;50.858;4.472;2022-09-21T13:54:50;4.85;;;0.70;;
23714;SDS011;12036;50.858;4.472;2022-09-21T13:57:17;4.65;;;0.80;;
23714;SDS011;12036;50.858;4.472;2022-09-21T14:02:38;3.50;;;0.77;;
23714;SDS011;12036;50.858;4.472;2022-09-21T14:13:38;1.75;;;0.80;;
23714;SDS011;12036;50.858;4.472;2022-09-21T14:18:53;4.18;;;0.88;;
23714;SDS011;12036;50.858;4.472;2022-09-21T14:21:19;2.03;;;0.65;;
23714;SDS011;12036;50.858;4.472;2022-09-21T14:28:58;1.73;;;0.73;;
23714;SDS011;12036;50.858;4.472;2022-09-21T14:31:53;3.28;;;0.93;;
23714;SDS011;12036;50.858;4.472;2022-09-21T14:34:22;3.97;;;0.75;;
23714;SDS011;12036;50.858;4.472;2022-09-21T14:36:56;3.22;;;0.90;;
23714;SDS011;12036;50.858;4.472;2022-09-21T14:39:32;2.20;;;0.60;;
23714;SDS011;12036;50.858;4.472;2022-09-21T14:42:06;2.28;;;0.68;;
23714;SDS011;12036;50.858;4.472;2022-09-21T14:44:43;2.28;;;0.52;;
23714;SDS011;12036;50.858;4.472;2022-09-21T14:47:32;2.00;;;0.75;;
23714;SDS011;12036;50.858;4.472;2022-09-21T14:50:20;1.17;;;0.70;;
23714;SDS011;12036;50.858;4.472;2022-09-21T14:55:31;1.52;;;0.60;;
23714;SDS011;12036;50.858;4.472;2022-09-21T15:07:02;4.50;;;0.85;;
23714;SDS011;12036;50.858;4.472;2022-09-21T15:10:26;2.42;;;0.82;;
23714;SDS011;12036;50.858;4.472;2022-09-21T15:13:30;5.82;;;0.70;;
23714;SDS011;12036;50.858;4.472;2022-09-21T15:16:17;2.42;;;0.68;;
23714;SDS011;12036;50.858;4.472;2022-09-21T15:21:52;7.03;;;0.98;;
23714;SDS011;12036;50.858;4.472;2022-09-21T15:24:30;2.20;;;0.75;;
23714;SDS011;12036;50.858;4.472;2022-09-21T15:27:08;4.60;;;0.88;;
23714;SDS011;12036;50.858;4.472;2022-09-21T15:34:56;4.60;;;1.10;;
23714;SDS011;12036;50.858;4.472;2022-09-21T15:37:25;4.30;;;1.83;;
23714;SDS011;12036;50.858;4.472;2022-09-21T15:40:35;5.10;;;2.30;;
23714;SDS011;12036;50.858;4.472;2022-09-21T15:45:57;2.58;;;1.00;;
23714;SDS011;12036;50.858;4.472;2022-09-21T15:50:55;2.42;;;0.88;;
23714;SDS011;12036;50.858;4.472;2022-09-21T15:53:27;2.47;;;1.10;;
23714;SDS011;12036;50.858;4.472;2022-09-21T15:56:00;4.70;;;1.30;;
23714;SDS011;12036;50.858;4.472;2022-09-21T15:58:30;4.93;;;1.63;;
23714;SDS011;12036;50.858;4.472;2022-09-21T16:01:02;2.55;;;1.40;;
23714;SDS011;12036;50.858;4.472;2022-09-21T16:03:34;4.78;;;2.03;;
23714;SDS011;12036;50.858;4.472;2022-09-21T16:06:01;3.28;;;1.80;;
23714;SDS011;12036;50.858;4.472;2022-09-21T16:08:47;3.15;;;1.02;;
23714;SDS011;12036;50.858;4.472;2022-09-21T16:14:24;3.05;;;0.80;;
23714;SDS011;12036;50.858;4.472;2022-09-21T16:19:40;3.03;;;0.88;;
23714;SDS011;12036;50.858;4.472;2022-09-21T16:22:28;2.83;;;0.88;;
23714;SDS011;12036;50.858;4.472;2022-09-21T16:24:57;4.85;;;0.68;;
23714;SDS011;12036;50.858;4.472;2022-09-21T16:27:25;2.92;;;1.00;;
23714;SDS011;12036;50.858;4.472;2022-09-21T16:29:54;3.72;;;0.80;;
23714;SDS011;12036;50.858;4.472;2022-09-21T16:32:27;1.40;;;0.70;;
23714;SDS011;12036;50.858;4.472;2022-09-21T16:35:20;5.10;;;0.90;;
23714;SDS011;12036;50.858;4.472;2022-09-21T16:37:58;2.92;;;1.10;;
23714;SDS011;12036;50.858;4.472;2022-09-21T16:40:27;2.58;;;1.20;;
23714;SDS011;12036;50.858;4.472;2022-09-21T16:42:53;3.38;;;1.55;;
23714;SDS011;12036;50.858;4.472;2022-09-21T16:45:27;10.88;;;5.13;;
23714;SDS011;12036;50.858;4.472;2022-09-21T16:47:55;4.07;;;1.63;;
23714;SDS011;12036;50.858;4.472;2022-09-21T16:50:23;2.92;;;1.13;;
23714;SDS011;12036;50.858;4.472;2022-09-21T16:52:48;2.05;;;1.13;;
23714;SDS011;12036;50.858;4.472;2022-09-21T16:55:16;3.28;;;0.88;;
23714;SDS011;12036;50.858;4.472;2022-09-21T16:57:42;6.95;;;1.20;;
23714;SDS011;12036;50.858;4.472;2022-09-21T17:00:18;4.80;;;1.08;;
23714;SDS011;12036;50.858;4.472;2022-09-21T17:02:44;7.57;;;1.42;;
23714;SDS011;12036;50.858;4.472;2022-09-21T17:05:12;7.05;;;1.30;;
23714;SDS011;12036;50.858;4.472;2022-09-21T17:07:50;6.15;;;1.20;;
23714;SDS011;12036;50.858;4.472;2022-09-21T17:10:22;9.63;;;1.15;;
23714;SDS011;12036;50.858;4.472;2022-09-21T17:12:53;4.80;;;1.00;;
23714;SDS011;12036;50.858;4.472;2022-09-21T17:15:19;4.22;;;1.15;;
23714;SDS011;12036;50.858;4.472;2022-09-21T17:17:46;5.60;;;1.75;;
23714;SDS011;12036;50.858;4.472;2022-09-21T17:23:09;5.47;;;2.33;;
23714;SDS011;12036;50.858;4.472;2022-09-21T17:25:35;8.32;;;2.80;;
23714;SDS011;12036;50.858;4.472;2022-09-21T17:28:02;8.43;;;2.40;;
23714;SDS011;12036;50.858;4.472;2022-09-21T17:30:36;13.18;;;2.42;;
23714;SDS011;12036;50.858;4.472;2022-09-21T17:33:02;5.35;;;2.25;;
23714;SDS011;12036;50.858;4.472;2022-09-21T17:35:31;5.70;;;1.92;;
23714;SDS011;12036;50.858;4.472;2022-09-21T17:38:02;7.82;;;3.60;;
23714;SDS011;12036;50.858;4.472;2022-09-21T17:40:29;8.27;;;2.45;;
23714;SDS011;12036;50.858;4.472;2022-09-21T17:43:03;4.13;;;1.73;;
23714;SDS011;12036;50.858;4.472;2022-09-21T17:45:41;3.55;;;2.33;;
23714;SDS011;12036;50.858;4.472;2022-09-21T17:48:18;4.20;;;2.25;;
23714;SDS011;12036;50.858;4.472;2022-09-21T17:50:45;5.65;;;2.30;;
23714;SDS011;12036;50.858;4.472;2022-09-21T17:53:11;4.50;;;2.70;;
23714;SDS011;12036;50.858;4.472;2022-09-21T17:55:56;7.40;;;2.70;;
23714;SDS011;12036;50.858;4.472;2022-09-21T18:04:05;8.48;;;3.42;;
23714;SDS011;12036;50.858;4.472;2022-09-21T18:06:34;9.85;;;3.30;;
23714;SDS011;12036;50.858;4.472;2022-09-21T18:09:00;7.85;;;3.38;;
23714;SDS011;12036;50.858;4.472;2022-09-21T18:14:11;7.90;;;4.03;;
23714;SDS011;12036;50.858;4.472;2022-09-21T18:24:56;8.02;;;3.22;;
23714;SDS011;12036;50.858;4.472;2022-09-21T18:27:22;5.82;;;2.70;;
23714;SDS011;12036;50.858;4.472;2022-09-21T18:29:48;9.68;;;3.03;;
23714;SDS011;12036;50.858;4.472;2022-09-21T18:40:38;8.57;;;3.63;;
23714;SDS011;12036;50.858;4.472;2022-09-21T18:43:18;7.30;;;3.58;;
23714;SDS011;12036;50.858;4.472;2022-09-21T18:46:03;6.60;;;3.70;;
23714;SDS011;12036;50.858;4.472;2022-09-21T18:48:44;7.70;;;4.28;;
23714;SDS011;12036;50.858;4.472;2022-09-21T18:54:15;8.65;;;4.57;;
23714;SDS011;12036;50.858;4.472;2022-09-21T18:56:44;7.18;;;4.72;;
23714;SDS011;12036;50.858;4.472;2022-09-21T18:59:11;9.82;;;3.60;;
23714;SDS011;12036;50.858;4.472;2022-09-21T19:01:38;9.15;;;4.50;;
23714;SDS011;12036;50.858;4.472;2022-09-21T19:04:06;13.40;;;4.50;;
23714;SDS011;12036;50.858;4.472;2022-09-21T19:12:05;10.50;;;3.92;;
23714;SDS011;12036;50.858;4.472;2022-09-21T19:17:53;5.78;;;3.67;;
23714;SDS011;12036;50.858;4.472;2022-09-21T19:26:17;9.32;;;3.95;;
23714;SDS011;12036;50.858;4.472;2022-09-21T19:31:42;13.18;;;5.40;;